sensor_id;sensor_type;location;lat;lon;timestamp;P1;durP1;ratioP1;P2;durP2;ratioP2
67053;SDS011;53960;51.826;5.850;2023-04-02T00:01:18;12.95;;;6.40;;
67053;SDS011;53960;51.826;5.850;2023-04-02T00:08:59;12.73;;;7.22;;
67053;SDS011;53960;51.826;5.850;2023-04-02T00:11:30;13.45;;;6.68;;
67053;SDS011;53960;51.826;5.850;2023-04-02T00:13:59;11.85;;;6.07;;
67053;SDS011;53960;51.826;5.850;2023-04-02T00:16:26;13.05;;;6.82;;
67053;SDS011;53960;51.826;5.850;2023-04-02T00:18:54;12.67;;;5.97;;
67053;SDS011;53960;51.826;5.850;2023-04-02T00:21:26;12.95;;;6.03;;
67053;SDS011;53960;51.826;5.850;2023-04-02T00:23:55;12.57;;;6.60;;
67053;SDS011;53960;51.826;5.850;2023-04-02T00:28:55;11.60;;;5.68;;
67053;SDS011;53960;51.826;5.850;2023-04-02T00:31:20;12.57;;;6.90;;
67053;SDS011;53960;51.826;5.850;2023-04-02T00:33:47;13.43;;;6.13;;
67053;SDS011;53960;51.826;5.850;2023-04-02T00:36:13;12.77;;;6.85;;
67053;SDS011;53960;51.826;5.850;2023-04-02T00:38:39;14.13;;;6.97;;
67053;SDS011;53960;51.826;5.850;2023-04-02T00:41:09;15.38;;;7.10;;
67053;SDS011;53960;51.826;5.850;2023-04-02T00:43:40;13.30;;;7.38;;
67053;SDS011;53960;51.826;5.850;2023-04-02T00:46:14;13.50;;;7.30;;
67053;SDS011;53960;51.826;5.850;2023-04-02T00:48:50;13.40;;;6.05;;
67053;SDS011;53960;51.826;5.850;2023-04-02T00:51:39;14.63;;;6.18;;
67053;SDS011;53960;51.826;5.850;2023-04-02T00:54:21;11.32;;;5.45;;
67053;SDS011;53960;51.826;5.850;2023-04-02T00:56:50;11.70;;;6.00;;
67053;SDS011;53960;51.826;5.850;2023-04-02T00:59:21;10.80;;;5.27;;
67053;SDS011;53960;51.826;5.850;2023-04-02T01:02:26;9.63;;;4.35;;
67053;SDS011;53960;51.826;5.850;2023-04-02T01:12:43;10.73;;;4.83;;
67053;SDS011;53960;51.826;5.850;2023-04-02T01:15:12;10.77;;;4.85;;
67053;SDS011;53960;51.826;5.850;2023-04-02T01:17:49;9.32;;;4.50;;
67053;SDS011;53960;51.826;5.850;2023-04-02T01:20:45;9.90;;;4.47;;
67053;SDS011;53960;51.826;5.850;2023-04-02T01:23:37;9.23;;;4.18;;
67053;SDS011;53960;51.826;5.850;2023-04-02T01:26:22;10.07;;;3.40;;
67053;SDS011;53960;51.826;5.850;2023-04-02T01:31:24;8.60;;;3.67;;
67053;SDS011;53960;51.826;5.850;2023-04-02T01:33:51;12.30;;;4.10;;
67053;SDS011;53960;51.826;5.850;2023-04-02T01:36:19;8.77;;;4.17;;
67053;SDS011;53960;51.826;5.850;2023-04-02T01:38:57;8.50;;;3.97;;
67053;SDS011;53960;51.826;5.850;2023-04-02T01:41:33;9.63;;;4.07;;
67053;SDS011;53960;51.826;5.850;2023-04-02T01:44:06;10.02;;;4.53;;
67053;SDS011;53960;51.826;5.850;2023-04-02T01:46:35;10.43;;;4.63;;
67053;SDS011;53960;51.826;5.850;2023-04-02T01:49:11;10.53;;;5.30;;
67053;SDS011;53960;51.826;5.850;2023-04-02T01:51:41;11.73;;;5.75;;
67053;SDS011;53960;51.826;5.850;2023-04-02T01:54:08;11.50;;;6.10;;
67053;SDS011;53960;51.826;5.850;2023-04-02T01:56:34;11.30;;;5.88;;
67053;SDS011;53960;51.826;5.850;2023-04-02T01:59:00;12.00;;;6.13;;
67053;SDS011;53960;51.826;5.850;2023-04-02T02:01:30;11.40;;;5.55;;
67053;SDS011;53960;51.826;5.850;2023-04-02T02:04:00;11.77;;;5.65;;
67053;SDS011;53960;51.826;5.850;2023-04-02T02:06:26;11.18;;;5.75;;
67053;SDS011;53960;51.826;5.850;2023-04-02T02:08:52;12.17;;;5.90;;
67053;SDS011;53960;51.826;5.850;2023-04-02T02:11:22;12.80;;;5.63;;
67053;SDS011;53960;51.826;5.850;2023-04-02T02:16:20;11.37;;;5.30;;
67053;SDS011;53960;51.826;5.850;2023-04-02T02:18:48;10.77;;;5.32;;
67053;SDS011;53960;51.826;5.850;2023-04-02T02:21:49;11.43;;;5.82;;
67053;SDS011;53960;51.826;5.850;2023-04-02T02:24:50;11.23;;;5.40;;
67053;SDS011;53960;51.826;5.850;2023-04-02T02:29:50;12.35;;;5.15;;
67053;SDS011;53960;51.826;5.850;2023-04-02T02:32:19;11.73;;;5.28;;
67053;SDS011;53960;51.826;5.850;2023-04-02T02:34:48;9.57;;;3.95;;
67053;SDS011;53960;51.826;5.850;2023-04-02T02:37:23;11.20;;;5.68;;
67053;SDS011;53960;51.826;5.850;2023-04-02T02:39:54;10.53;;;4.30;;
67053;SDS011;53960;51.826;5.850;2023-04-02T02:42:25;10.75;;;4.97;;
67053;SDS011;53960;51.826;5.850;2023-04-02T02:44:56;11.07;;;4.97;;
67053;SDS011;53960;51.826;5.850;2023-04-02T02:47:26;14.10;;;5.70;;
67053;SDS011;53960;51.826;5.850;2023-04-02T02:49:54;11.30;;;4.55;;
67053;SDS011;53960;51.826;5.850;2023-04-02T02:52:24;13.80;;;5.20;;
67053;SDS011;53960;51.826;5.850;2023-04-02T02:54:56;11.30;;;4.88;;
67053;SDS011;53960;51.826;5.850;2023-04-02T02:57:25;11.00;;;5.20;;
67053;SDS011;53960;51.826;5.850;2023-04-02T02:59:54;11.80;;;5.43;;
67053;SDS011;53960;51.826;5.850;2023-04-02T03:02:22;13.38;;;5.75;;
67053;SDS011;53960;51.826;5.850;2023-04-02T03:04:50;14.10;;;5.63;;
67053;SDS011;53960;51.826;5.850;2023-04-02T03:07:17;12.68;;;5.50;;
67053;SDS011;53960;51.826;5.850;2023-04-02T03:09:48;10.95;;;5.18;;
67053;SDS011;53960;51.826;5.850;2023-04-02T03:15:14;13.00;;;6.78;;
67053;SDS011;53960;51.826;5.850;2023-04-02T03:18:02;12.57;;;5.70;;
67053;SDS011;53960;51.826;5.850;2023-04-02T03:20:39;10.90;;;4.97;;
67053;SDS011;53960;51.826;5.850;2023-04-02T03:23:17;11.82;;;4.70;;
67053;SDS011;53960;51.826;5.850;2023-04-02T03:25:51;10.68;;;4.97;;
67053;SDS011;53960;51.826;5.850;2023-04-02T03:28:24;10.68;;;4.50;;
67053;SDS011;53960;51.826;5.850;2023-04-02T03:30:56;11.00;;;4.60;;
67053;SDS011;53960;51.826;5.850;2023-04-02T03:33:27;10.75;;;4.30;;
67053;SDS011;53960;51.826;5.850;2023-04-02T03:36:02;11.10;;;4.93;;
67053;SDS011;53960;51.826;5.850;2023-04-02T03:41:49;9.70;;;3.92;;
67053;SDS011;53960;51.826;5.850;2023-04-02T03:44:21;12.97;;;4.80;;
67053;SDS011;53960;51.826;5.850;2023-04-02T03:46:52;10.55;;;4.10;;
67053;SDS011;53960;51.826;5.850;2023-04-02T03:49:29;11.10;;;4.40;;
67053;SDS011;53960;51.826;5.850;2023-04-02T03:54:32;8.80;;;3.97;;
67053;SDS011;53960;51.826;5.850;2023-04-02T03:56:57;9.67;;;4.17;;
67053;SDS011;53960;51.826;5.850;2023-04-02T03:59:27;11.73;;;4.38;;
67053;SDS011;53960;51.826;5.850;2023-04-02T04:04:57;10.25;;;4.78;;
67053;SDS011;53960;51.826;5.850;2023-04-02T04:07:32;9.60;;;3.40;;
67053;SDS011;53960;51.826;5.850;2023-04-02T04:10:00;9.10;;;3.78;;
67053;SDS011;53960;51.826;5.850;2023-04-02T04:12:31;10.18;;;4.32;;
67053;SDS011;53960;51.826;5.850;2023-04-02T04:15:14;8.55;;;3.85;;
67053;SDS011;53960;51.826;5.850;2023-04-02T04:20:35;10.83;;;3.90;;
67053;SDS011;53960;51.826;5.850;2023-04-02T04:23:13;7.80;;;3.17;;
67053;SDS011;53960;51.826;5.850;2023-04-02T04:25:44;8.60;;;3.33;;
67053;SDS011;53960;51.826;5.850;2023-04-02T04:28:26;10.07;;;3.70;;
67053;SDS011;53960;51.826;5.850;2023-04-02T04:31:07;9.93;;;4.35;;
67053;SDS011;53960;51.826;5.850;2023-04-02T04:33:42;9.13;;;4.07;;
67053;SDS011;53960;51.826;5.850;2023-04-02T04:36:21;9.05;;;4.15;;
67053;SDS011;53960;51.826;5.850;2023-04-02T04:38:51;12.40;;;5.30;;
67053;SDS011;53960;51.826;5.850;2023-04-02T04:41:20;11.60;;;5.85;;
67053;SDS011;53960;51.826;5.850;2023-04-02T04:43:50;9.60;;;4.82;;
67053;SDS011;53960;51.826;5.850;2023-04-02T04:46:26;12.40;;;5.07;;
67053;SDS011;53960;51.826;5.850;2023-04-02T04:49:07;13.73;;;6.38;;
67053;SDS011;53960;51.826;5.850;2023-04-02T04:51:38;13.23;;;6.53;;
67053;SDS011;53960;51.826;5.850;2023-04-02T04:54:10;13.00;;;6.85;;
67053;SDS011;53960;51.826;5.850;2023-04-02T04:56:38;12.95;;;6.93;;
67053;SDS011;53960;51.826;5.850;2023-04-02T04:59:20;11.07;;;5.80;;
67053;SDS011;53960;51.826;5.850;2023-04-02T05:04:29;11.60;;;5.75;;
67053;SDS011;53960;51.826;5.850;2023-04-02T05:07:02;12.38;;;5.53;;
67053;SDS011;53960;51.826;5.850;2023-04-02T05:12:05;11.60;;;5.47;;
67053;SDS011;53960;51.826;5.850;2023-04-02T05:14:36;10.63;;;4.82;;
67053;SDS011;53960;51.826;5.850;2023-04-02T05:17:16;12.18;;;5.38;;
67053;SDS011;53960;51.826;5.850;2023-04-02T05:25:22;10.37;;;4.47;;
67053;SDS011;53960;51.826;5.850;2023-04-02T05:27:58;10.20;;;4.50;;
67053;SDS011;53960;51.826;5.850;2023-04-02T05:30:47;11.13;;;4.15;;
67053;SDS011;53960;51.826;5.850;2023-04-02T05:35:47;9.63;;;4.00;;
67053;SDS011;53960;51.826;5.850;2023-04-02T05:38:20;11.03;;;4.27;;
67053;SDS011;53960;51.826;5.850;2023-04-02T05:40:57;9.13;;;3.97;;
67053;SDS011;53960;51.826;5.850;2023-04-02T05:43:25;9.45;;;3.90;;
67053;SDS011;53960;51.826;5.850;2023-04-02T05:45:54;8.10;;;3.33;;
67053;SDS011;53960;51.826;5.850;2023-04-02T05:48:27;12.57;;;4.25;;
67053;SDS011;53960;51.826;5.850;2023-04-02T05:50:57;9.37;;;3.70;;
67053;SDS011;53960;51.826;5.850;2023-04-02T05:53:32;10.77;;;3.50;;
67053;SDS011;53960;51.826;5.850;2023-04-02T05:56:16;8.25;;;2.85;;
67053;SDS011;53960;51.826;5.850;2023-04-02T05:59:03;8.88;;;3.03;;
67053;SDS011;53960;51.826;5.850;2023-04-02T06:02:16;8.95;;;3.00;;
67053;SDS011;53960;51.826;5.850;2023-04-02T06:04:58;8.57;;;2.57;;
67053;SDS011;53960;51.826;5.850;2023-04-02T06:10:09;9.38;;;3.03;;
67053;SDS011;53960;51.826;5.850;2023-04-02T06:15:11;10.93;;;2.78;;
67053;SDS011;53960;51.826;5.850;2023-04-02T06:17:45;7.60;;;2.20;;
67053;SDS011;53960;51.826;5.850;2023-04-02T06:20:23;10.00;;;2.65;;
67053;SDS011;53960;51.826;5.850;2023-04-02T06:22:56;8.18;;;2.20;;
67053;SDS011;53960;51.826;5.850;2023-04-02T06:25:45;8.80;;;2.28;;
67053;SDS011;53960;51.826;5.850;2023-04-02T06:28:16;8.48;;;2.42;;
67053;SDS011;53960;51.826;5.850;2023-04-02T06:30:45;9.20;;;2.67;;
67053;SDS011;53960;51.826;5.850;2023-04-02T06:33:12;10.70;;;2.20;;
67053;SDS011;53960;51.826;5.850;2023-04-02T06:35:40;8.85;;;2.40;;
67053;SDS011;53960;51.826;5.850;2023-04-02T06:38:11;7.00;;;2.20;;
67053;SDS011;53960;51.826;5.850;2023-04-02T06:40:43;10.32;;;2.30;;
67053;SDS011;53960;51.826;5.850;2023-04-02T06:43:16;8.00;;;1.80;;
67053;SDS011;53960;51.826;5.850;2023-04-02T06:45:48;7.22;;;2.22;;
67053;SDS011;53960;51.826;5.850;2023-04-02T06:48:18;7.13;;;2.30;;
67053;SDS011;53960;51.826;5.850;2023-04-02T06:53:22;6.47;;;1.85;;
67053;SDS011;53960;51.826;5.850;2023-04-02T06:55:53;9.40;;;2.20;;
67053;SDS011;53960;51.826;5.850;2023-04-02T06:58:38;8.20;;;2.35;;
67053;SDS011;53960;51.826;5.850;2023-04-02T07:01:03;6.43;;;2.00;;
67053;SDS011;53960;51.826;5.850;2023-04-02T07:03:30;8.02;;;2.20;;
67053;SDS011;53960;51.826;5.850;2023-04-02T07:05:56;7.65;;;2.40;;
67053;SDS011;53960;51.826;5.850;2023-04-02T07:08:24;9.70;;;2.20;;
67053;SDS011;53960;51.826;5.850;2023-04-02T07:10:50;5.87;;;1.57;;
67053;SDS011;53960;51.826;5.850;2023-04-02T07:13:16;7.10;;;2.13;;
67053;SDS011;53960;51.826;5.850;2023-04-02T07:15:44;6.28;;;1.70;;
67053;SDS011;53960;51.826;5.850;2023-04-02T07:18:15;7.82;;;2.05;;
67053;SDS011;53960;51.826;5.850;2023-04-02T07:20:47;8.67;;;1.80;;
67053;SDS011;53960;51.826;5.850;2023-04-02T07:23:12;5.83;;;1.53;;
67053;SDS011;53960;51.826;5.850;2023-04-02T07:25:38;8.88;;;2.10;;
67053;SDS011;53960;51.826;5.850;2023-04-02T07:28:03;6.57;;;1.90;;
67053;SDS011;53960;51.826;5.850;2023-04-02T07:30:30;7.13;;;1.60;;
67053;SDS011;53960;51.826;5.850;2023-04-02T07:32:55;8.07;;;1.80;;
67053;SDS011;53960;51.826;5.850;2023-04-02T07:35:21;7.63;;;2.00;;
67053;SDS011;53960;51.826;5.850;2023-04-02T07:37:46;6.43;;;1.33;;
67053;SDS011;53960;51.826;5.850;2023-04-02T07:40:16;6.63;;;1.93;;
67053;SDS011;53960;51.826;5.850;2023-04-02T07:42:43;9.98;;;1.88;;
67053;SDS011;53960;51.826;5.850;2023-04-02T07:45:09;7.53;;;1.70;;
67053;SDS011;53960;51.826;5.850;2023-04-02T07:47:35;8.15;;;2.03;;
67053;SDS011;53960;51.826;5.850;2023-04-02T07:50:00;7.70;;;1.80;;
67053;SDS011;53960;51.826;5.850;2023-04-02T07:52:25;7.27;;;2.07;;
67053;SDS011;53960;51.826;5.850;2023-04-02T07:54:51;5.90;;;1.63;;
67053;SDS011;53960;51.826;5.850;2023-04-02T07:57:16;6.93;;;1.90;;
67053;SDS011;53960;51.826;5.850;2023-04-02T07:59:41;7.53;;;1.77;;
67053;SDS011;53960;51.826;5.850;2023-04-02T08:02:15;6.87;;;2.30;;
67053;SDS011;53960;51.826;5.850;2023-04-02T08:04:42;6.50;;;1.75;;
67053;SDS011;53960;51.826;5.850;2023-04-02T08:07:08;6.97;;;1.70;;
67053;SDS011;53960;51.826;5.850;2023-04-02T08:09:33;7.20;;;1.70;;
67053;SDS011;53960;51.826;5.850;2023-04-02T08:11:58;8.57;;;1.90;;
67053;SDS011;53960;51.826;5.850;2023-04-02T08:14:24;7.57;;;1.60;;
67053;SDS011;53960;51.826;5.850;2023-04-02T08:16:50;7.43;;;2.13;;
67053;SDS011;53960;51.826;5.850;2023-04-02T08:19:17;7.03;;;1.85;;
67053;SDS011;53960;51.826;5.850;2023-04-02T08:21:43;6.35;;;2.08;;
67053;SDS011;53960;51.826;5.850;2023-04-02T08:24:09;9.32;;;2.20;;
67053;SDS011;53960;51.826;5.850;2023-04-02T08:26:35;8.40;;;2.07;;
67053;SDS011;53960;51.826;5.850;2023-04-02T08:29:00;9.00;;;2.23;;
67053;SDS011;53960;51.826;5.850;2023-04-02T08:31:26;6.55;;;1.80;;
67053;SDS011;53960;51.826;5.850;2023-04-02T08:33:51;7.20;;;1.57;;
67053;SDS011;53960;51.826;5.850;2023-04-02T08:36:18;6.82;;;1.80;;
67053;SDS011;53960;51.826;5.850;2023-04-02T08:38:48;6.97;;;1.92;;
67053;SDS011;53960;51.826;5.850;2023-04-02T08:41:23;6.33;;;1.97;;
67053;SDS011;53960;51.826;5.850;2023-04-02T08:46:50;8.45;;;1.90;;
67053;SDS011;53960;51.826;5.850;2023-04-02T08:49:37;7.45;;;1.60;;
67053;SDS011;53960;51.826;5.850;2023-04-02T08:52:26;6.80;;;1.60;;
67053;SDS011;53960;51.826;5.850;2023-04-02T08:54:54;8.27;;;2.05;;
67053;SDS011;53960;51.826;5.850;2023-04-02T09:02:51;8.02;;;2.15;;
67053;SDS011;53960;51.826;5.850;2023-04-02T09:05:22;7.22;;;2.05;;
67053;SDS011;53960;51.826;5.850;2023-04-02T09:07:55;6.55;;;1.98;;
67053;SDS011;53960;51.826;5.850;2023-04-02T09:10:24;7.70;;;1.93;;
67053;SDS011;53960;51.826;5.850;2023-04-02T09:13:03;8.70;;;2.15;;
67053;SDS011;53960;51.826;5.850;2023-04-02T09:15:39;8.27;;;2.03;;
67053;SDS011;53960;51.826;5.850;2023-04-02T09:18:12;7.97;;;2.00;;
67053;SDS011;53960;51.826;5.850;2023-04-02T09:20:40;8.10;;;1.98;;
67053;SDS011;53960;51.826;5.850;2023-04-02T09:23:07;6.27;;;1.53;;
67053;SDS011;53960;51.826;5.850;2023-04-02T09:25:43;6.05;;;1.77;;
67053;SDS011;53960;51.826;5.850;2023-04-02T09:28:12;7.80;;;2.15;;
67053;SDS011;53960;51.826;5.850;2023-04-02T09:30:46;8.23;;;2.45;;
67053;SDS011;53960;51.826;5.850;2023-04-02T09:33:39;5.78;;;1.73;;
67053;SDS011;53960;51.826;5.850;2023-04-02T09:39:01;6.40;;;1.98;;
67053;SDS011;53960;51.826;5.850;2023-04-02T09:41:47;7.90;;;2.00;;
67053;SDS011;53960;51.826;5.850;2023-04-02T09:44:25;7.45;;;2.25;;
67053;SDS011;53960;51.826;5.850;2023-04-02T09:46:58;6.97;;;1.98;;
67053;SDS011;53960;51.826;5.850;2023-04-02T09:52:17;7.85;;;2.47;;
67053;SDS011;53960;51.826;5.850;2023-04-02T09:54:46;6.15;;;1.98;;
67053;SDS011;53960;51.826;5.850;2023-04-02T09:57:32;7.25;;;2.20;;
67053;SDS011;53960;51.826;5.850;2023-04-02T10:02:38;7.72;;;2.25;;
67053;SDS011;53960;51.826;5.850;2023-04-02T10:05:05;9.32;;;2.38;;
67053;SDS011;53960;51.826;5.850;2023-04-02T10:07:43;9.67;;;2.20;;
67053;SDS011;53960;51.826;5.850;2023-04-02T10:10:20;8.07;;;2.22;;
67053;SDS011;53960;51.826;5.850;2023-04-02T10:12:56;6.65;;;2.13;;
67053;SDS011;53960;51.826;5.850;2023-04-02T10:21:09;7.70;;;1.70;;
67053;SDS011;53960;51.826;5.850;2023-04-02T10:23:38;7.22;;;1.83;;
67053;SDS011;53960;51.826;5.850;2023-04-02T10:28:54;6.93;;;2.00;;
67053;SDS011;53960;51.826;5.850;2023-04-02T10:31:25;9.60;;;2.40;;
67053;SDS011;53960;51.826;5.850;2023-04-02T10:34:01;6.67;;;1.90;;
67053;SDS011;53960;51.826;5.850;2023-04-02T10:39:33;7.45;;;1.88;;
67053;SDS011;53960;51.826;5.850;2023-04-02T10:44:42;7.53;;;1.98;;
67053;SDS011;53960;51.826;5.850;2023-04-02T10:47:14;7.97;;;1.67;;
67053;SDS011;53960;51.826;5.850;2023-04-02T10:52:26;7.00;;;1.85;;
67053;SDS011;53960;51.826;5.850;2023-04-02T10:54:55;5.97;;;1.40;;
67053;SDS011;53960;51.826;5.850;2023-04-02T10:57:33;7.63;;;1.63;;
67053;SDS011;53960;51.826;5.850;2023-04-02T11:05:49;8.65;;;1.77;;
67053;SDS011;53960;51.826;5.850;2023-04-02T11:08:19;6.13;;;1.50;;
67053;SDS011;53960;51.826;5.850;2023-04-02T11:10:55;6.28;;;1.77;;
67053;SDS011;53960;51.826;5.850;2023-04-02T11:13:30;5.97;;;1.63;;
67053;SDS011;53960;51.826;5.850;2023-04-02T11:16:01;6.80;;;1.63;;
67053;SDS011;53960;51.826;5.850;2023-04-02T11:18:28;6.15;;;1.67;;
67053;SDS011;53960;51.826;5.850;2023-04-02T11:21:46;6.38;;;1.95;;
67053;SDS011;53960;51.826;5.850;2023-04-02T11:23:57;6.22;;;1.50;;
67053;SDS011;53960;51.826;5.850;2023-04-02T11:26:35;7.43;;;1.50;;
67053;SDS011;53960;51.826;5.850;2023-04-02T11:29:19;7.00;;;1.70;;
67053;SDS011;53960;51.826;5.850;2023-04-02T11:31:49;7.53;;;1.70;;
67053;SDS011;53960;51.826;5.850;2023-04-02T11:37:08;7.30;;;2.25;;
67053;SDS011;53960;51.826;5.850;2023-04-02T11:45:47;6.70;;;1.70;;
67053;SDS011;53960;51.826;5.850;2023-04-02T11:53:01;8.10;;;2.20;;
67053;SDS011;53960;51.826;5.850;2023-04-02T11:55:30;7.75;;;2.00;;
67053;SDS011;53960;51.826;5.850;2023-04-02T12:11:32;7.97;;;2.05;;
67053;SDS011;53960;51.826;5.850;2023-04-02T12:14:01;8.32;;;1.88;;
67053;SDS011;53960;51.826;5.850;2023-04-02T12:16:32;6.40;;;1.77;;
67053;SDS011;53960;51.826;5.850;2023-04-02T12:18:58;5.73;;;1.70;;
67053;SDS011;53960;51.826;5.850;2023-04-02T12:21:26;6.90;;;2.10;;
67053;SDS011;53960;51.826;5.850;2023-04-02T12:23:53;7.45;;;2.05;;
67053;SDS011;53960;51.826;5.850;2023-04-02T12:31:50;8.50;;;2.07;;
67053;SDS011;53960;51.826;5.850;2023-04-02T12:34:18;8.98;;;2.20;;
67053;SDS011;53960;51.826;5.850;2023-04-02T12:37:02;7.65;;;1.92;;
67053;SDS011;53960;51.826;5.850;2023-04-02T12:39:32;8.60;;;2.13;;
67053;SDS011;53960;51.826;5.850;2023-04-02T12:41:58;7.85;;;2.10;;
67053;SDS011;53960;51.826;5.850;2023-04-02T12:44:25;7.20;;;2.20;;
67053;SDS011;53960;51.826;5.850;2023-04-02T12:46:52;6.57;;;2.20;;
67053;SDS011;53960;51.826;5.850;2023-04-02T12:49:27;8.23;;;2.00;;
67053;SDS011;53960;51.826;5.850;2023-04-02T12:51:55;6.85;;;1.90;;
67053;SDS011;53960;51.826;5.850;2023-04-02T12:54:21;7.25;;;1.92;;
67053;SDS011;53960;51.826;5.850;2023-04-02T12:56:47;6.17;;;2.00;;
67053;SDS011;53960;51.826;5.850;2023-04-02T13:01:53;7.88;;;2.30;;
67053;SDS011;53960;51.826;5.850;2023-04-02T13:04:21;8.15;;;2.42;;
67053;SDS011;53960;51.826;5.850;2023-04-02T13:06:47;7.57;;;2.13;;
67053;SDS011;53960;51.826;5.850;2023-04-02T13:09:35;9.23;;;2.53;;
67053;SDS011;53960;51.826;5.850;2023-04-02T13:12:21;7.68;;;2.20;;
67053;SDS011;53960;51.826;5.850;2023-04-02T13:15:01;7.85;;;2.10;;
67053;SDS011;53960;51.826;5.850;2023-04-02T13:22:51;8.13;;;2.05;;
67053;SDS011;53960;51.826;5.850;2023-04-02T13:25:16;6.43;;;1.63;;
67053;SDS011;53960;51.826;5.850;2023-04-02T13:27:42;8.80;;;2.08;;
67053;SDS011;53960;51.826;5.850;2023-04-02T13:30:21;6.33;;;1.60;;
67053;SDS011;53960;51.826;5.850;2023-04-02T13:32:48;6.90;;;1.92;;
67053;SDS011;53960;51.826;5.850;2023-04-02T13:35:13;7.43;;;1.70;;
67053;SDS011;53960;51.826;5.850;2023-04-02T13:37:39;7.37;;;2.20;;
67053;SDS011;53960;51.826;5.850;2023-04-02T13:40:05;9.40;;;1.70;;
67053;SDS011;53960;51.826;5.850;2023-04-02T13:42:31;8.20;;;2.47;;
67053;SDS011;53960;51.826;5.850;2023-04-02T13:44:56;6.50;;;1.80;;
67053;SDS011;53960;51.826;5.850;2023-04-02T13:47:21;7.87;;;1.90;;
67053;SDS011;53960;51.826;5.850;2023-04-02T13:49:47;6.00;;;1.53;;
67053;SDS011;53960;51.826;5.850;2023-04-02T13:52:12;7.47;;;1.90;;
67053;SDS011;53960;51.826;5.850;2023-04-02T13:57:10;7.18;;;1.80;;
67053;SDS011;53960;51.826;5.850;2023-04-02T13:59:36;8.20;;;1.67;;
67053;SDS011;53960;51.826;5.850;2023-04-02T14:02:03;7.90;;;1.70;;
67053;SDS011;53960;51.826;5.850;2023-04-02T14:04:34;5.60;;;1.30;;
67053;SDS011;53960;51.826;5.850;2023-04-02T14:07:09;6.95;;;1.60;;
67053;SDS011;53960;51.826;5.850;2023-04-02T14:09:58;7.55;;;1.60;;
67053;SDS011;53960;51.826;5.850;2023-04-02T14:15:30;7.53;;;1.92;;
67053;SDS011;53960;51.826;5.850;2023-04-02T14:23:44;7.72;;;2.30;;
67053;SDS011;53960;51.826;5.850;2023-04-02T14:29:22;7.88;;;2.10;;
67053;SDS011;53960;51.826;5.850;2023-04-02T14:37:32;7.72;;;1.60;;
67053;SDS011;53960;51.826;5.850;2023-04-02T14:43:01;6.80;;;1.65;;
67053;SDS011;53960;51.826;5.850;2023-04-02T14:48:43;10.35;;;1.88;;
67053;SDS011;53960;51.826;5.850;2023-04-02T14:51:06;8.38;;;2.13;;
67053;SDS011;53960;51.826;5.850;2023-04-02T14:56:14;7.85;;;1.67;;
67053;SDS011;53960;51.826;5.850;2023-04-02T14:58:45;6.63;;;1.50;;
67053;SDS011;53960;51.826;5.850;2023-04-02T15:01:35;6.45;;;1.58;;
67053;SDS011;53960;51.826;5.850;2023-04-02T15:04:16;6.97;;;1.52;;
67053;SDS011;53960;51.826;5.850;2023-04-02T15:06:50;5.90;;;1.50;;
67053;SDS011;53960;51.826;5.850;2023-04-02T15:11:55;6.13;;;1.60;;
67053;SDS011;53960;51.826;5.850;2023-04-02T15:14:36;7.72;;;1.30;;
67053;SDS011;53960;51.826;5.850;2023-04-02T15:17:09;7.28;;;1.70;;
67053;SDS011;53960;51.826;5.850;2023-04-02T15:19:36;8.32;;;2.13;;
67053;SDS011;53960;51.826;5.850;2023-04-02T15:25:05;7.13;;;1.67;;
67053;SDS011;53960;51.826;5.850;2023-04-02T15:30:14;7.47;;;1.80;;
67053;SDS011;53960;51.826;5.850;2023-04-02T15:32:46;6.93;;;1.30;;
67053;SDS011;53960;51.826;5.850;2023-04-02T15:35:34;8.75;;;1.73;;
67053;SDS011;53960;51.826;5.850;2023-04-02T15:38:15;8.00;;;1.77;;
67053;SDS011;53960;51.826;5.850;2023-04-02T15:43:29;6.65;;;1.42;;
67053;SDS011;53960;51.826;5.850;2023-04-02T15:51:12;6.35;;;1.80;;
67053;SDS011;53960;51.826;5.850;2023-04-02T16:07:18;6.20;;;1.60;;
67053;SDS011;53960;51.826;5.850;2023-04-02T16:09:56;6.45;;;1.67;;
67053;SDS011;53960;51.826;5.850;2023-04-02T16:12:30;7.90;;;1.97;;
67053;SDS011;53960;51.826;5.850;2023-04-02T16:15:02;6.63;;;1.65;;
67053;SDS011;53960;51.826;5.850;2023-04-02T16:17:58;7.28;;;1.77;;
67053;SDS011;53960;51.826;5.850;2023-04-02T16:20:28;7.10;;;1.65;;
67053;SDS011;53960;51.826;5.850;2023-04-02T16:23:01;7.78;;;1.70;;
67053;SDS011;53960;51.826;5.850;2023-04-02T16:25:33;7.53;;;1.70;;
67053;SDS011;53960;51.826;5.850;2023-04-02T16:28:26;6.18;;;1.50;;
67053;SDS011;53960;51.826;5.850;2023-04-02T16:39:27;7.90;;;1.90;;
67053;SDS011;53960;51.826;5.850;2023-04-02T16:42:15;7.18;;;1.40;;
67053;SDS011;53960;51.826;5.850;2023-04-02T16:45:04;6.35;;;1.38;;
67053;SDS011;53960;51.826;5.850;2023-04-02T16:50:29;5.80;;;1.40;;
67053;SDS011;53960;51.826;5.850;2023-04-02T16:53:19;5.43;;;1.27;;
67053;SDS011;53960;51.826;5.850;2023-04-02T16:56:00;7.05;;;1.92;;
67053;SDS011;53960;51.826;5.850;2023-04-02T17:01:41;7.50;;;1.45;;
67053;SDS011;53960;51.826;5.850;2023-04-02T17:06:56;5.97;;;1.40;;
67053;SDS011;53960;51.826;5.850;2023-04-02T17:09:40;7.82;;;1.58;;
67053;SDS011;53960;51.826;5.850;2023-04-02T17:12:14;8.02;;;1.58;;
67053;SDS011;53960;51.826;5.850;2023-04-02T17:14:51;7.75;;;1.63;;
67053;SDS011;53960;51.826;5.850;2023-04-02T17:17:22;6.40;;;1.70;;
67053;SDS011;53960;51.826;5.850;2023-04-02T17:19:49;6.63;;;1.70;;
67053;SDS011;53960;51.826;5.850;2023-04-02T17:22:18;9.68;;;1.55;;
67053;SDS011;53960;51.826;5.850;2023-04-02T17:30:12;5.73;;;1.50;;
67053;SDS011;53960;51.826;5.850;2023-04-02T17:32:47;6.95;;;1.60;;
67053;SDS011;53960;51.826;5.850;2023-04-02T17:35:15;8.07;;;2.10;;
67053;SDS011;53960;51.826;5.850;2023-04-02T17:37:53;7.45;;;2.10;;
67053;SDS011;53960;51.826;5.850;2023-04-02T17:40:46;9.60;;;2.60;;
67053;SDS011;53960;51.826;5.850;2023-04-02T17:46:19;7.38;;;2.17;;
67053;SDS011;53960;51.826;5.850;2023-04-02T17:51:52;7.63;;;2.10;;
67053;SDS011;53960;51.826;5.850;2023-04-02T17:54:34;6.80;;;2.10;;
67053;SDS011;53960;51.826;5.850;2023-04-02T18:05:37;7.43;;;1.85;;
67053;SDS011;53960;51.826;5.850;2023-04-02T18:08:32;6.80;;;1.60;;
67053;SDS011;53960;51.826;5.850;2023-04-02T18:11:12;8.82;;;1.50;;
67053;SDS011;53960;51.826;5.850;2023-04-02T18:13:48;7.90;;;2.03;;
67053;SDS011;53960;51.826;5.850;2023-04-02T18:16:40;7.38;;;1.45;;
67053;SDS011;53960;51.826;5.850;2023-04-02T18:24:40;8.23;;;1.67;;
67053;SDS011;53960;51.826;5.850;2023-04-02T18:33:01;7.13;;;1.65;;
67053;SDS011;53960;51.826;5.850;2023-04-02T18:38:26;6.65;;;1.70;;
67053;SDS011;53960;51.826;5.850;2023-04-02T18:41:07;7.93;;;1.50;;
67053;SDS011;53960;51.826;5.850;2023-04-02T18:51:43;7.82;;;1.83;;
67053;SDS011;53960;51.826;5.850;2023-04-02T18:54:17;6.63;;;1.37;;
67053;SDS011;53960;51.826;5.850;2023-04-02T18:56:47;6.30;;;1.67;;
67053;SDS011;53960;51.826;5.850;2023-04-02T19:02:48;6.68;;;1.70;;
67053;SDS011;53960;51.826;5.850;2023-04-02T19:08:07;6.60;;;1.90;;
67053;SDS011;53960;51.826;5.850;2023-04-02T19:10:37;6.15;;;1.60;;
67053;SDS011;53960;51.826;5.850;2023-04-02T19:13:10;7.03;;;1.70;;
67053;SDS011;53960;51.826;5.850;2023-04-02T19:15:49;6.93;;;2.00;;
67053;SDS011;53960;51.826;5.850;2023-04-02T19:21:14;7.88;;;1.83;;
67053;SDS011;53960;51.826;5.850;2023-04-02T19:26:34;8.23;;;2.30;;
67053;SDS011;53960;51.826;5.850;2023-04-02T19:31:43;7.25;;;1.95;;
67053;SDS011;53960;51.826;5.850;2023-04-02T19:34:16;6.57;;;2.00;;
67053;SDS011;53960;51.826;5.850;2023-04-02T19:42:24;7.05;;;1.98;;
67053;SDS011;53960;51.826;5.850;2023-04-02T19:45:19;8.63;;;2.30;;
67053;SDS011;53960;51.826;5.850;2023-04-02T19:47:49;6.80;;;2.00;;
67053;SDS011;53960;51.826;5.850;2023-04-02T19:50:14;6.90;;;2.40;;
67053;SDS011;53960;51.826;5.850;2023-04-02T19:52:40;10.70;;;2.90;;